createdAt,value
2014-08-21T06:35:04.219Z,272
2014-08-21T06:35:22.407Z,319
2014-08-21T06:35:40.597Z,325
2014-08-21T06:35:58.800Z,320
2014-08-21T06:36:16.988Z,301
2014-08-21T06:36:35.192Z,308
2014-08-21T06:36:53.380Z,276
2014-08-21T06:37:11.567Z,320
2014-08-21T06:37:29.770Z,333
2014-08-21T06:37:47.960Z,326
2014-08-21T06:38:06.147Z,323
2014-08-21T06:38:24.350Z,284
2014-08-21T06:38:42.540Z,261
2014-08-21T06:39:00.743Z,234
2014-08-21T06:39:18.930Z,190
2014-08-21T06:39:37.120Z,200
2014-08-21T06:39:55.323Z,136
2014-08-21T06:40:13.511Z,122
2014-08-21T06:40:31.714Z,169
2014-08-21T06:40:49.903Z,170
2014-08-21T06:41:08.106Z,150
2014-08-21T06:41:26.294Z,126
2014-08-21T06:41:44.482Z,124
2014-08-21T06:42:02.685Z,174
2014-08-21T06:42:20.873Z,130
2014-08-21T06:42:39.078Z,131
2014-08-21T06:42:57.266Z,121
2014-08-21T06:43:15.453Z,111
2014-08-21T06:43:33.656Z,241
2014-08-21T06:43:51.846Z,162
2014-08-21T06:44:10.049Z,89
2014-08-21T06:44:28.236Z,81
2014-08-21T06:44:46.427Z,75
2014-08-21T06:45:04.614Z,72
2014-08-21T06:45:22.817Z,69
2014-08-21T06:45:41.007Z,67
2014-08-21T06:45:59.194Z,65
2014-08-21T06:46:17.398Z,63
2014-08-21T06:46:35.585Z,62
2014-08-21T06:46:53.775Z,60
2014-08-21T06:47:11.962Z,59
2014-08-21T06:47:30.150Z,57
2014-08-21T06:47:48.354Z,57
2014-08-21T06:48:06.541Z,56
2014-08-21T06:48:24.729Z,57
2014-08-21T06:48:42.935Z,63
2014-08-21T06:49:01.122Z,51
2014-08-21T06:49:19.310Z,45
2014-08-21T06:49:37.513Z,43
2014-08-21T06:49:55.718Z,42
2014-08-21T06:50:13.906Z,42
2014-08-21T06:50:32.093Z,43
2014-08-21T06:50:50.298Z,45
2014-08-21T06:51:08.486Z,48
2014-08-21T06:51:26.673Z,50
2014-08-21T06:51:44.877Z,53
2014-08-21T06:52:03.065Z,56
2014-08-21T06:52:21.252Z,58
2014-08-21T06:52:39.440Z,60
2014-08-21T06:52:57.645Z,63
2014-08-21T06:53:15.832Z,66
2014-08-21T06:53:34.020Z,71
2014-08-21T06:53:52.209Z,79
2014-08-21T06:54:10.413Z,154
2014-08-21T06:54:28.600Z,98
2014-08-21T06:54:46.790Z,93
2014-08-21T06:55:04.977Z,88
2014-08-21T06:55:23.180Z,88
2014-08-21T06:55:41.368Z,87
2014-08-21T06:55:59.557Z,89
2014-08-21T06:56:17.745Z,118
2014-08-21T06:56:35.948Z,95
2014-08-21T06:56:54.137Z,111
2014-08-21T06:57:12.340Z,94
2014-08-21T06:57:30.528Z,98
2014-08-21T06:57:48.715Z,113
2014-08-21T06:58:06.920Z,94
2014-08-21T06:58:25.107Z,84
2014-08-21T06:58:43.295Z,77
2014-08-21T06:59:01.501Z,70
2014-08-21T06:59:19.688Z,66
2014-08-21T06:59:37.876Z,62
2014-08-21T06:59:56.081Z,61
2014-08-21T07:00:14.268Z,61
2014-08-21T07:00:32.487Z,60
2014-08-21T07:00:50.675Z,59
2014-08-21T07:01:08.863Z,58
2014-08-21T07:01:27.051Z,57
2014-08-21T07:01:45.254Z,56
2014-08-21T07:02:03.444Z,56
2014-08-21T07:02:21.632Z,56
2014-08-21T07:02:39.819Z,57
2014-08-21T07:02:58.024Z,57
2014-08-21T07:03:16.212Z,58
2014-08-21T07:03:34.399Z,59
2014-08-21T07:03:52.602Z,61
2014-08-21T07:04:10.791Z,62
2014-08-21T07:04:28.978Z,63
2014-08-21T07:04:47.166Z,64
2014-08-21T07:05:05.356Z,64
2014-08-21T07:05:23.560Z,64
2014-08-21T07:05:41.747Z,62
2014-08-21T07:05:59.936Z,60
2014-08-21T07:06:18.139Z,58
2014-08-21T07:06:36.326Z,55
2014-08-21T07:06:54.514Z,53
2014-08-21T07:07:12.703Z,51
2014-08-21T07:07:30.891Z,49
2014-08-21T07:07:49.078Z,47
2014-08-21T07:08:07.283Z,47
2014-08-21T07:08:25.471Z,43
2014-08-21T07:08:43.658Z,41
2014-08-21T07:09:01.863Z,40
2014-08-21T07:09:20.051Z,39
2014-08-21T07:09:38.238Z,38
2014-08-21T07:09:56.426Z,37
2014-08-21T07:10:14.631Z,36
2014-08-21T07:10:32.819Z,36
2014-08-21T07:10:51.006Z,35
2014-08-21T07:11:09.196Z,34
2014-08-21T07:11:27.399Z,33
2014-08-21T07:11:45.586Z,32
2014-08-21T07:12:03.776Z,30
2014-08-21T07:12:21.963Z,29
2014-08-21T07:12:40.166Z,28
2014-08-21T07:12:58.354Z,27
2014-08-21T07:13:16.543Z,26
2014-08-21T07:13:34.731Z,26
2014-08-21T07:13:52.934Z,25
2014-08-21T07:14:11.123Z,25
2014-08-21T07:14:29.311Z,24
2014-08-21T07:14:47.498Z,24
2014-08-21T07:15:05.704Z,24
2014-08-21T07:15:23.891Z,24
2014-08-21T07:15:42.079Z,24
2014-08-21T07:16:00.266Z,24
2014-08-21T07:16:18.471Z,24
2014-08-21T07:16:36.659Z,24
2014-08-21T07:16:54.846Z,24
2014-08-21T07:17:13.051Z,24
2014-08-21T07:17:31.239Z,24
2014-08-21T07:17:49.426Z,23
2014-08-21T07:18:07.614Z,23
2014-08-21T07:18:25.819Z,23
2014-08-21T07:18:44.006Z,23
2014-08-21T07:19:02.194Z,24
2014-08-21T07:19:20.399Z,24
2014-08-21T07:19:38.587Z,25
2014-08-21T07:19:56.774Z,26
2014-08-21T07:20:14.978Z,27
2014-08-21T07:20:33.166Z,29
2014-08-21T07:20:51.353Z,31
2014-08-21T07:21:09.541Z,32
2014-08-21T07:21:27.747Z,34
2014-08-21T07:21:45.934Z,36
2014-08-21T07:22:04.137Z,38
2014-08-21T07:22:22.327Z,40
2014-08-21T07:22:40.514Z,41
2014-08-21T07:22:58.718Z,43
2014-08-21T07:23:16.907Z,44
2014-08-21T07:23:35.095Z,46
2014-08-21T07:23:53.282Z,47
2014-08-21T07:24:11.485Z,49
2014-08-21T07:24:29.675Z,50
2014-08-21T07:24:47.862Z,51
2014-08-21T07:25:06.050Z,53
2014-08-21T07:25:24.238Z,53
2014-08-21T07:25:42.426Z,54
2014-08-21T07:26:00.613Z,346
2014-08-21T07:26:18.803Z,345
2014-08-21T07:26:37.006Z,75
2014-08-21T07:26:55.193Z,85
2014-08-21T07:27:13.381Z,95
2014-08-21T07:27:31.570Z,95
2014-08-21T07:27:49.758Z,91
2014-08-21T07:28:07.961Z,93
2014-08-21T07:28:26.150Z,98
2014-08-21T07:28:44.354Z,102
2014-08-21T07:29:02.541Z,103
2014-08-21T07:29:20.746Z,98
2014-08-21T07:29:38.934Z,94
2014-08-21T07:29:57.121Z,101
2014-08-21T07:30:15.324Z,101
2014-08-21T07:30:33.514Z,101
2014-08-21T07:30:51.717Z,101
2014-08-21T07:31:09.904Z,103
2014-08-21T07:31:28.110Z,102
2014-08-21T07:31:46.297Z,108
2014-08-21T07:32:04.500Z,103
2014-08-21T07:32:22.690Z,103
2014-08-21T07:32:40.877Z,103
2014-08-21T07:32:59.080Z,106
2014-08-21T07:33:17.268Z,109
2014-08-21T07:33:35.473Z,102
2014-08-21T07:33:53.660Z,103
2014-08-21T07:34:11.864Z,365
2014-08-21T07:34:30.053Z,361
2014-08-21T07:34:48.256Z,105
2014-08-21T07:35:06.444Z,107
2014-08-21T07:35:24.662Z,103
2014-08-21T07:35:42.852Z,108
2014-08-21T07:36:01.055Z,107
2014-08-21T07:36:19.243Z,104
2014-08-21T07:36:37.448Z,111
2014-08-21T07:36:55.635Z,108
2014-08-21T07:37:13.838Z,111
2014-08-21T07:37:32.028Z,108
2014-08-21T07:37:50.231Z,109
2014-08-21T07:38:08.418Z,110
2014-08-21T07:38:26.606Z,111
2014-08-21T07:38:44.811Z,114
2014-08-21T07:39:02.999Z,117
2014-08-21T07:39:21.186Z,113
2014-08-21T07:39:39.391Z,112
2014-08-21T07:39:57.579Z,114
2014-08-21T07:40:15.782Z,113
2014-08-21T07:40:33.971Z,112
2014-08-21T07:40:52.174Z,104
2014-08-21T07:41:10.362Z,104
2014-08-21T07:41:28.565Z,103
2014-08-21T07:41:46.755Z,103
2014-08-21T07:42:04.958Z,100
2014-08-21T07:42:23.161Z,97
2014-08-21T07:42:41.350Z,101
2014-08-21T07:42:59.553Z,94
2014-08-21T07:43:17.741Z,96
2014-08-21T07:43:35.930Z,94
2014-08-21T07:43:54.118Z,98
2014-08-21T07:44:12.321Z,100
2014-08-21T07:44:30.509Z,100
2014-08-21T07:44:48.714Z,101
2014-08-21T07:45:06.901Z,102
2014-08-21T07:45:25.104Z,98
2014-08-21T07:45:43.293Z,99
2014-08-21T07:46:01.480Z,106
2014-08-21T07:46:19.683Z,104
2014-08-21T07:46:37.873Z,111
2014-08-21T07:46:56.076Z,108
2014-08-21T07:47:14.264Z,109
2014-08-21T07:47:32.467Z,114
2014-08-21T07:47:50.656Z,115
2014-08-21T07:48:08.859Z,123
2014-08-21T07:48:27.047Z,119
2014-08-21T07:48:45.236Z,119
2014-08-21T07:49:03.439Z,122
2014-08-21T07:49:21.643Z,124
2014-08-21T07:49:39.832Z,121
2014-08-21T07:49:58.035Z,119
2014-08-21T07:50:16.223Z,122
2014-08-21T07:50:34.426Z,120
2014-08-21T07:50:52.615Z,127
2014-08-21T07:51:10.818Z,125
2014-08-21T07:51:29.006Z,131
2014-08-21T07:51:47.195Z,140
2014-08-21T07:52:05.399Z,134
2014-08-21T07:52:23.586Z,137
2014-08-21T07:52:41.791Z,137
